createdAt,value
2019-02-02T00:02:10.332Z,95063.98
2019-02-02T00:05:16.777Z,95062.33
2019-02-02T00:08:23.600Z,95046.58
2019-02-02T00:11:30.483Z,95029.91
2019-02-02T00:14:36.990Z,95028.73
2019-02-02T00:17:43.522Z,95041.86
2019-02-02T00:20:50.319Z,95040.11
2019-02-02T00:23:56.926Z,95040.34
2019-02-02T00:27:03.446Z,95027.81
2019-02-02T00:30:11.427Z,95029.45
2019-02-02T00:33:18.963Z,95031.92
2019-02-02T00:36:25.290Z,95044.25
2019-02-02T00:39:32.898Z,95056.30
2019-02-02T00:42:39.552Z,95053.94
2019-02-02T00:45:45.875Z,95046.37
2019-02-02T00:48:52.386Z,95050.17
2019-02-02T00:51:58.776Z,95052.88
2019-02-02T00:55:05.943Z,95058.55
2019-02-02T00:58:12.627Z,95062.22
2019-02-02T01:01:20.502Z,95065.88
2019-02-02T01:04:26.919Z,95063.28
2019-02-02T01:07:33.684Z,95066.36
2019-02-02T01:10:40.141Z,95070.14
2019-02-02T01:13:47.903Z,95074.03
2019-02-02T01:16:54.743Z,95071.67
2019-02-02T01:20:01.332Z,95059.63
2019-02-02T01:23:08.725Z,95062.91
2019-02-02T01:26:15.240Z,95061.27
2019-02-02T01:29:21.777Z,95069.79
2019-02-02T01:32:29.323Z,95062.56
2019-02-02T01:35:35.584Z,95064.23
2019-02-02T01:38:42.377Z,95061.63
2019-02-02T01:41:49.480Z,95074.64
2019-02-02T01:44:55.709Z,95054.99
2019-02-02T01:48:02.449Z,95066.36
2019-02-02T01:51:10.315Z,95071.91
2019-02-02T01:54:16.639Z,95079.84
2019-02-02T01:57:23.351Z,95082.45
2019-02-02T02:00:31.452Z,95075.92
2019-02-02T02:03:37.775Z,95070.13
2019-02-02T02:06:44.369Z,95066.70
2019-02-02T02:09:50.855Z,95052.05
2019-02-02T02:12:57.489Z,95044.35
2019-02-02T02:16:04.126Z,95047.56
2019-02-02T02:19:10.684Z,95039.75
2019-02-02T02:22:17.206Z,95032.64
2019-02-02T02:25:23.824Z,95037.74
2019-02-02T02:28:30.292Z,95032.53
2019-02-02T02:31:39.156Z,95048.96
2019-02-02T02:34:45.462Z,95048.04
2019-02-02T02:37:51.714Z,95037.49
2019-02-02T02:40:58.157Z,95038.59
2019-02-02T02:44:04.459Z,95052.39
2019-02-02T02:47:10.903Z,95054.89
2019-02-02T02:50:18.847Z,95050.64
2019-02-02T02:53:25.278Z,95054.55
2019-02-02T02:56:32.552Z,95052.53
2019-02-02T02:59:39.297Z,95055.13
2019-02-02T03:02:45.936Z,95060.33
2019-02-02T03:05:52.260Z,95057.72
2019-02-02T03:08:58.578Z,95063.51
2019-02-02T03:12:05.277Z,95063.03
2019-02-02T03:15:12.602Z,95066.84
2019-02-02T03:18:22.099Z,95070.84
2019-02-02T03:21:28.335Z,95058.78
2019-02-02T03:24:35.045Z,95044.37
2019-02-02T03:27:42.727Z,95032.80
2019-02-02T03:30:48.850Z,95035.02
2019-02-02T03:33:55.344Z,95037.63
2019-02-02T03:37:01.984Z,95035.98
2019-02-02T03:40:14.027Z,95039.30
2019-02-02T03:43:20.291Z,95034.69
2019-02-02T03:46:27.254Z,95041.30
2019-02-02T03:49:33.582Z,95045.44
2019-02-02T03:52:40.047Z,95042.70
2019-02-02T03:55:46.881Z,95039.65
2019-02-02T03:59:06.140Z,95040.95
2019-02-02T04:02:03.601Z,95054.78
2019-02-02T04:05:13.007Z,95060.45
2019-02-02T04:08:19.774Z,95054.19
2019-02-02T04:11:26.225Z,95045.80
2019-02-02T04:14:32.787Z,95076.30
2019-02-02T04:17:39.027Z,95077.47
2019-02-02T04:20:45.524Z,95072.27
2019-02-02T04:23:52.065Z,95073.80
2019-02-02T04:26:58.617Z,95085.16
2019-02-02T04:30:06.977Z,95093.07
2019-02-02T04:33:13.405Z,95092.25
2019-02-02T04:36:19.973Z,95079.84
2019-02-02T04:39:26.475Z,95071.45
2019-02-02T04:42:32.736Z,95066.61
2019-02-02T04:45:40.653Z,95059.02
2019-02-02T04:48:47.020Z,95066.83
2019-02-02T04:51:53.955Z,95095.56
2019-02-02T04:55:00.505Z,95092.14
2019-02-02T04:58:07.063Z,95083.98
2019-02-02T05:01:13.541Z,95079.02
2019-02-02T05:04:20.540Z,95086.21
2019-02-02T05:07:27.457Z,95078.31
2019-02-02T05:10:34.073Z,95082.80
2019-02-02T05:13:40.948Z,95084.34
2019-02-02T05:16:48.053Z,95088.36
2019-02-02T05:19:55.078Z,95101.23
2019-02-02T05:23:01.884Z,95102.31
2019-02-02T05:26:08.607Z,95097.58
2019-02-02T05:29:15.498Z,95101.38
2019-02-02T05:32:21.897Z,95097.92
2019-02-02T05:35:28.456Z,95094.73
2019-02-02T05:38:34.802Z,95092.27
2019-02-02T05:41:42.321Z,95086.94
2019-02-02T05:44:48.827Z,95067.30
2019-02-02T05:47:55.546Z,95056.44
2019-02-02T05:51:02.147Z,95059.97
2019-02-02T05:54:08.544Z,95088.48
2019-02-02T05:57:15.451Z,95118.14
2019-02-02T06:00:45.744Z,95118.49
2019-02-02T06:03:52.219Z,95098.64
2019-02-02T06:06:58.687Z,95100.77
2019-02-02T06:10:06.388Z,95117.91
2019-02-02T06:13:13.446Z,95116.50
2019-02-02T06:16:20.405Z,95142.38
2019-02-02T06:19:27.441Z,95145.33
2019-02-02T06:22:35.664Z,95151.25
2019-02-02T06:25:44.073Z,95156.91
2019-02-02T06:28:50.895Z,95151.02
2019-02-02T06:31:58.276Z,95148.28
2019-02-02T06:35:06.149Z,95151.25
2019-02-02T06:38:12.960Z,95156.45
2019-02-02T06:41:19.693Z,95158.57
2019-02-02T06:44:26.608Z,95153.61
2019-02-02T06:47:33.446Z,95161.08
2019-02-02T06:50:40.198Z,95165.79
2019-02-02T06:53:46.835Z,95165.31
2019-02-02T06:56:53.636Z,95168.27
2019-02-02T07:00:00.226Z,95164.38
2019-02-02T07:03:06.810Z,95156.45
2019-02-02T07:06:13.537Z,95162.02
2019-02-02T07:09:20.696Z,95160.84
2019-02-02T07:12:27.885Z,95165.69
2019-02-02T07:15:35.339Z,95172.17
2019-02-02T07:18:42.868Z,95170.03
2019-02-02T07:21:50.542Z,95170.16
2019-02-02T07:24:57.438Z,95169.21
2019-02-02T07:28:04.863Z,95176.44
2019-02-02T07:31:11.895Z,95177.74
2019-02-02T07:34:19.185Z,95199.27
2019-02-02T07:37:25.612Z,95207.17
2019-02-02T07:40:32.539Z,95215.89
2019-02-02T07:43:39.830Z,95238.49
2019-02-02T07:46:46.640Z,95242.77
2019-02-02T07:49:52.964Z,95261.92
2019-02-02T07:52:59.671Z,95275.31
2019-02-02T07:56:07.212Z,95287.39
2019-02-02T07:59:14.030Z,95286.69
2019-02-02T08:02:20.268Z,95283.75
2019-02-02T08:05:27.201Z,95284.94
2019-02-02T08:08:34.180Z,95272.70
2019-02-02T08:11:40.888Z,95274.61
2019-02-02T08:14:47.174Z,95276.61
2019-02-02T08:17:53.610Z,95288.47
2019-02-02T08:20:59.867Z,95288.47
2019-02-02T08:24:06.725Z,95293.32
2019-02-02T08:27:13.448Z,95296.17
2019-02-02T08:30:24.814Z,95295.59
2019-02-02T08:33:31.999Z,95314.18
2019-02-02T08:36:38.695Z,95314.53
2019-02-02T08:39:45.080Z,95323.89
2019-02-02T08:42:52.025Z,95316.44
2019-02-02T08:45:58.759Z,95319.66
2019-02-02T08:49:06.371Z,95331.64
2019-02-02T08:52:13.334Z,95327.16
2019-02-02T08:55:20.278Z,95322.33
2019-02-02T08:58:27.259Z,95321.60
2019-02-02T09:01:34.923Z,95335.81
2019-02-02T09:04:41.643Z,95340.92
2019-02-02T09:07:48.412Z,95354.39
2019-02-02T09:10:56.133Z,95353.92
2019-02-02T09:14:03.316Z,95349.12
2019-02-02T09:17:10.198Z,95348.78
2019-02-02T09:20:17.409Z,95353.22
2019-02-02T09:23:24.267Z,95366.45
2019-02-02T09:26:31.093Z,95361.72
2019-02-02T09:29:37.873Z,95353.34
2019-02-02T09:32:44.983Z,95341.38
2019-02-02T09:35:51.451Z,95336.19
2019-02-02T09:38:58.405Z,95337.27
2019-02-02T09:42:05.582Z,95342.23
2019-02-02T09:45:13.420Z,95340.45
2019-02-02T09:48:20.764Z,95343.30
2019-02-02T09:51:27.683Z,95342.72
2019-02-02T09:54:34.575Z,95339.86
2019-02-02T09:57:40.899Z,95342.23
2019-02-02T10:00:47.458Z,95353.86
2019-02-02T10:03:54.244Z,95349.59
2019-02-02T10:07:01.686Z,95352.30
2019-02-02T10:10:11.089Z,95358.58
2019-02-02T10:13:18.056Z,95357.90
2019-02-02T10:16:25.010Z,95369.00
2019-02-02T10:19:31.419Z,95371.84
2019-02-02T10:22:39.272Z,95378.12
2019-02-02T10:25:46.048Z,95378.14
2019-02-02T10:28:53.981Z,95382.05
2019-02-02T10:32:00.907Z,95385.03
2019-02-02T10:35:07.538Z,95386.19
2019-02-02T10:38:15.425Z,95389.41
2019-02-02T10:41:22.020Z,95387.72
2019-02-02T10:44:30.555Z,95385.12
2019-02-02T10:47:37.006Z,95399.11
2019-02-02T10:50:43.981Z,95402.06
2019-02-02T10:53:50.310Z,95402.45
2019-02-02T10:56:57.012Z,95401.59
2019-02-02T11:00:04.150Z,95391.02
2019-02-02T11:03:11.225Z,95393.15
2019-02-02T11:06:17.974Z,95395.89
2019-02-02T11:09:25.067Z,95402.52
2019-02-02T11:12:32.401Z,95418.55
2019-02-02T11:15:39.601Z,95421.29
2019-02-02T11:18:46.703Z,95423.78
2019-02-02T11:21:53.724Z,95419.39
2019-02-02T11:25:01.192Z,95431.11
2019-02-02T11:28:09.350Z,95433.13
2019-02-02T11:31:16.647Z,95423.64
2019-02-02T11:34:23.508Z,95418.91
2019-02-02T11:37:30.260Z,95423.53
2019-02-02T11:40:37.260Z,95429.80
2019-02-02T11:43:43.870Z,95424.22
2019-02-02T11:46:51.765Z,95434.77
2019-02-02T11:49:58.902Z,95436.27
2019-02-02T11:53:05.551Z,95439.59
2019-02-02T11:56:16.330Z,95436.47
2019-02-02T11:59:22.586Z,95440.12
2019-02-02T12:02:29.552Z,95438.72
2019-02-02T12:05:36.372Z,95435.22
2019-02-02T12:08:43.103Z,95445.00
2019-02-02T12:11:49.810Z,95433.83
2019-02-02T12:14:56.947Z,95430.23
2019-02-02T12:18:03.875Z,95432.59
2019-02-02T12:21:11.465Z,95431.47
2019-02-02T12:24:19.687Z,95434.39
2019-02-02T12:27:26.098Z,95434.55
2019-02-02T12:30:34.688Z,95443.20
2019-02-02T12:33:41.101Z,95441.05
2019-02-02T12:36:47.919Z,95435.48
2019-02-02T12:39:54.607Z,95444.13
2019-02-02T12:43:00.991Z,95435.25
2019-02-02T12:46:08.261Z,95431.63
2019-02-02T12:49:15.261Z,95445.34
2019-02-02T12:52:22.019Z,95454.24
2019-02-02T12:55:28.575Z,95455.22
2019-02-02T12:58:35.382Z,95464.16
2019-02-02T13:01:43.096Z,95468.75
2019-02-02T13:04:49.567Z,95476.86
2019-02-02T13:07:57.153Z,95478.81
2019-02-02T13:11:03.753Z,95487.99
2019-02-02T13:14:10.621Z,95489.02
2019-02-02T13:17:17.108Z,95485.70
2019-02-02T13:20:23.582Z,95493.53
2019-02-02T13:23:30.361Z,95495.27
2019-02-02T13:26:38.122Z,95501.03
2019-02-02T13:29:44.668Z,95502.58
2019-02-02T13:32:51.437Z,95513.77
2019-02-02T13:35:58.116Z,95516.61
2019-02-02T13:39:08.319Z,95516.40
2019-02-02T13:42:15.023Z,95525.48
2019-02-02T13:45:22.065Z,95526.45
2019-02-02T13:48:29.276Z,95528.00
2019-02-02T13:51:37.568Z,95532.48
2019-02-02T13:54:44.145Z,95534.87
2019-02-02T13:57:51.292Z,95539.00
2019-02-02T14:01:00.661Z,95544.23
2019-02-02T14:04:07.771Z,95540.01
2019-02-02T14:07:18.183Z,95551.03
2019-02-02T14:10:24.788Z,95567.61
2019-02-02T14:13:33.621Z,95572.70
2019-02-02T14:16:40.481Z,95577.10
2019-02-02T14:19:47.486Z,95589.22
2019-02-02T14:22:54.080Z,95595.53
2019-02-02T14:26:01.046Z,95604.64
2019-02-02T14:29:07.605Z,95616.38
2019-02-02T14:32:14.203Z,95621.67
2019-02-02T14:35:21.834Z,95628.05
2019-02-02T14:38:29.462Z,95636.41
2019-02-02T14:41:37.175Z,95633.79
2019-02-02T14:44:44.260Z,95633.83
2019-02-02T14:47:51.357Z,95643.92
2019-02-02T14:50:57.883Z,95650.68
2019-02-02T14:54:04.853Z,95662.20
2019-02-02T14:57:11.717Z,95658.88
2019-02-02T15:00:20.349Z,95668.56
2019-02-02T15:03:27.079Z,95677.00
2019-02-02T15:06:37.363Z,95687.68
2019-02-02T15:09:43.875Z,95689.13
2019-02-02T15:12:53.215Z,95691.03
2019-02-02T15:15:59.769Z,95705.70
2019-02-02T15:19:06.405Z,95701.78
2019-02-02T15:22:13.471Z,95709.13
2019-02-02T15:25:23.354Z,95709.37
2019-02-02T15:28:30.120Z,95725.19
2019-02-02T15:31:37.587Z,95726.59
2019-02-02T15:34:44.352Z,95733.02
2019-02-02T15:37:53.279Z,95733.37
2019-02-02T15:40:59.760Z,95733.20
2019-02-02T15:44:06.697Z,95741.37
2019-02-02T15:47:13.223Z,95747.98
2019-02-02T15:50:20.213Z,95754.47
2019-02-02T15:53:26.968Z,95754.20
2019-02-02T15:56:34.361Z,95747.55
2019-02-02T15:59:40.970Z,95753.20
2019-02-02T16:02:47.652Z,95750.23
2019-02-02T16:05:54.687Z,95760.37
2019-02-02T16:09:01.460Z,95760.80
2019-02-02T16:12:10.000Z,95759.71
2019-02-02T16:15:17.302Z,95769.09
2019-02-02T16:18:25.920Z,95766.72
2019-02-02T16:21:32.823Z,95774.99
2019-02-02T16:24:39.868Z,95783.73
2019-02-02T16:27:46.547Z,95785.93
2019-02-02T16:30:53.187Z,95797.99
2019-02-02T16:34:02.162Z,95809.72
2019-02-02T16:37:08.677Z,95814.39
2019-02-02T16:40:17.750Z,95821.70
2019-02-02T16:43:24.406Z,95825.30
2019-02-02T16:46:31.270Z,95839.54
2019-02-02T16:49:39.387Z,95845.31
2019-02-02T16:52:46.290Z,95851.56
2019-02-02T16:55:53.399Z,95856.77
2019-02-02T17:00:43.656Z,95856.50
2019-02-02T17:03:50.269Z,95864.44
2019-02-02T17:06:56.788Z,95863.34
2019-02-02T17:10:03.340Z,95859.17
2019-02-02T17:13:12.057Z,95862.45
2019-02-02T17:16:20.382Z,95853.89
2019-02-02T17:19:27.466Z,95864.31
2019-02-02T17:22:35.065Z,95862.93
2019-02-02T17:25:43.903Z,95866.16
2019-02-02T17:28:50.817Z,95878.86
2019-02-02T17:31:58.180Z,95886.67
2019-02-02T17:35:05.307Z,95892.47
2019-02-02T17:38:12.049Z,95898.59
2019-02-02T17:41:19.056Z,95897.83
2019-02-02T17:44:25.991Z,95897.95
2019-02-02T17:47:32.946Z,95909.41
2019-02-02T17:50:39.719Z,95913.20
2019-02-02T17:53:46.405Z,95917.94
2019-02-02T17:56:52.912Z,95906.41
2019-02-02T17:59:59.726Z,95923.34
2019-02-02T18:03:06.713Z,95931.08
2019-02-02T18:06:13.446Z,95935.88
2019-02-02T18:09:19.965Z,95936.28
2019-02-02T18:12:26.617Z,95945.14
2019-02-02T18:15:33.456Z,95950.34
2019-02-02T18:18:40.676Z,95951.98
2019-02-02T18:21:47.595Z,95959.42
2019-02-02T18:24:54.208Z,95973.14
2019-02-02T18:28:01.011Z,95978.40
2019-02-02T18:31:07.728Z,95978.24
2019-02-02T18:34:15.587Z,95984.95
2019-02-02T18:37:22.366Z,95987.92
2019-02-02T18:40:29.316Z,95984.72
2019-02-02T18:43:35.998Z,95984.76
2019-02-02T18:46:43.034Z,95982.83
2019-02-02T18:49:50.082Z,95992.45
2019-02-02T18:52:56.687Z,95989.70
2019-02-02T18:56:09.588Z,95990.92
2019-02-02T18:59:16.077Z,95993.64
2019-02-02T19:02:24.009Z,96002.80
2019-02-02T19:05:30.952Z,96008.96
2019-02-02T19:08:37.905Z,96015.88
2019-02-02T19:11:44.356Z,96017.02
2019-02-02T19:14:51.402Z,96019.61
2019-02-02T19:17:59.462Z,96017.95
2019-02-02T19:21:06.172Z,96027.23
2019-02-02T19:24:13.086Z,96022.02
2019-02-02T19:27:23.173Z,96028.22
2019-02-02T19:30:31.467Z,96027.98
2019-02-02T19:33:39.280Z,96035.41
2019-02-02T19:36:46.238Z,96039.39
2019-02-02T19:39:53.767Z,96044.96
2019-02-02T19:43:00.427Z,96052.81
2019-02-02T19:46:07.451Z,96061.37
2019-02-02T19:49:13.879Z,96077.72
2019-02-02T19:52:21.884Z,96077.53
2019-02-02T19:55:31.256Z,96084.79
2019-02-02T19:58:37.904Z,96089.72
2019-02-02T20:01:45.191Z,96094.41
2019-02-02T20:04:52.606Z,96107.34
2019-02-02T20:07:59.345Z,96124.00
2019-02-02T20:11:06.398Z,96118.98
2019-02-02T20:14:15.126Z,96119.73
2019-02-02T20:17:21.727Z,96124.56
2019-02-02T20:20:28.654Z,96125.30
2019-02-02T20:23:38.402Z,96131.63
2019-02-02T20:26:43.389Z,96135.53
2019-02-02T20:29:50.391Z,96136.83
2019-02-02T20:32:57.451Z,96132.56
2019-02-02T20:36:04.656Z,96143.70
2019-02-02T20:39:11.128Z,96147.14
2019-02-02T20:42:18.009Z,96153.28
2019-02-02T20:45:26.776Z,96157.74
2019-02-02T20:48:33.305Z,96161.56
2019-02-02T20:51:41.842Z,96166.48
2019-02-02T20:54:49.960Z,96175.25
2019-02-02T20:57:57.869Z,96190.52
2019-02-02T21:01:04.835Z,96194.78
2019-02-02T21:04:12.576Z,96196.74
2019-02-02T21:07:22.457Z,96206.31
2019-02-02T21:10:30.208Z,96208.17
2019-02-02T21:13:37.717Z,96208.11
2019-02-02T21:16:45.201Z,96209.84
2019-02-02T21:19:52.357Z,96213.39
2019-02-02T21:23:00.502Z,96208.66
2019-02-02T21:26:07.615Z,96213.86
2019-02-02T21:29:14.365Z,96216.47
2019-02-02T21:32:21.758Z,96214.80
2019-02-02T21:35:28.641Z,96218.41
2019-02-02T21:38:35.711Z,96241.20
2019-02-02T21:41:44.896Z,96239.72
2019-02-02T21:44:51.449Z,96247.27
2019-02-02T21:47:58.069Z,96246.52
2019-02-02T21:51:04.693Z,96248.36
2019-02-02T21:54:11.290Z,96248.94
2019-02-02T21:57:17.937Z,96260.48
2019-02-02T22:00:29.370Z,96263.08
2019-02-02T22:03:36.261Z,96271.61
2019-02-02T22:06:43.531Z,96277.30
2019-02-02T22:09:51.037Z,96287.08
2019-02-02T22:12:59.046Z,96287.83
2019-02-02T22:16:06.040Z,96302.99
2019-02-02T22:19:14.048Z,96302.52
2019-02-02T22:22:22.282Z,96322.83
2019-02-02T22:25:30.088Z,96324.12
2019-02-02T22:28:37.085Z,96328.48
2019-02-02T22:31:45.624Z,96332.31
2019-02-02T22:34:52.560Z,96330.90
2019-02-02T22:37:59.781Z,96336.21
2019-02-02T22:41:07.095Z,96337.98
2019-02-02T22:44:13.884Z,96337.05
2019-02-02T22:47:22.025Z,96333.78
2019-02-02T22:50:29.361Z,96339.37
2019-02-02T22:53:36.653Z,96337.23
2019-02-02T22:56:44.456Z,96341.24
2019-02-02T22:59:52.050Z,96352.61
2019-02-02T23:02:59.157Z,96354.09
2019-02-02T23:06:39.645Z,96364.12
2019-02-02T23:10:32.114Z,96368.89
2019-02-02T23:14:08.495Z,96382.28
2019-02-02T23:17:15.948Z,96388.80
2019-02-02T23:20:22.387Z,96398.92
2019-02-02T23:23:29.458Z,96398.92
2019-02-02T23:26:36.560Z,96396.97
2019-02-02T23:29:43.484Z,96394.73
2019-02-02T23:32:50.115Z,96387.09
2019-02-02T23:35:57.167Z,96401.42
2019-02-02T23:39:05.938Z,96394.08
2019-02-02T23:42:12.708Z,96391.76
2019-02-02T23:45:22.107Z,96398.39
2019-02-02T23:48:29.001Z,96397.91
2019-02-02T23:51:36.518Z,96401.78
2019-02-02T23:54:43.026Z,96400.95
2019-02-02T23:57:49.808Z,96407.86
